sensor_id;sensor_type;location;lat;lon;timestamp;P1;durP1;ratioP1;P2;durP2;ratioP2
74371;SDS011;62885;51.374;6.170;2023-02-08T00:01:42;11.00;;;4.38;;
74371;SDS011;62885;51.374;6.170;2023-02-08T00:04:07;10.38;;;4.70;;
74371;SDS011;62885;51.374;6.170;2023-02-08T00:06:33;11.35;;;4.65;;
74371;SDS011;62885;51.374;6.170;2023-02-08T00:08:58;10.32;;;4.75;;
74371;SDS011;62885;51.374;6.170;2023-02-08T00:11:25;12.68;;;5.35;;
74371;SDS011;62885;51.374;6.170;2023-02-08T00:13:50;14.00;;;5.03;;
74371;SDS011;62885;51.374;6.170;2023-02-08T00:16:16;11.30;;;4.72;;
74371;SDS011;62885;51.374;6.170;2023-02-08T00:18:42;10.07;;;5.65;;
74371;SDS011;62885;51.374;6.170;2023-02-08T00:21:15;11.52;;;4.63;;
74371;SDS011;62885;51.374;6.170;2023-02-08T00:23:42;11.38;;;4.90;;
74371;SDS011;62885;51.374;6.170;2023-02-08T00:26:07;10.77;;;4.55;;
74371;SDS011;62885;51.374;6.170;2023-02-08T00:28:33;11.10;;;4.82;;
74371;SDS011;62885;51.374;6.170;2023-02-08T00:30:58;13.25;;;5.30;;
74371;SDS011;62885;51.374;6.170;2023-02-08T00:33:24;10.23;;;4.30;;
74371;SDS011;62885;51.374;6.170;2023-02-08T00:35:49;11.33;;;5.03;;
74371;SDS011;62885;51.374;6.170;2023-02-08T00:38:15;8.77;;;4.57;;
74371;SDS011;62885;51.374;6.170;2023-02-08T00:40:40;10.43;;;4.80;;
74371;SDS011;62885;51.374;6.170;2023-02-08T00:43:06;10.32;;;4.50;;
74371;SDS011;62885;51.374;6.170;2023-02-08T00:45:31;8.35;;;4.00;;
74371;SDS011;62885;51.374;6.170;2023-02-08T00:48:00;10.00;;;4.25;;
74371;SDS011;62885;51.374;6.170;2023-02-08T00:50:25;9.45;;;3.95;;
74371;SDS011;62885;51.374;6.170;2023-02-08T00:52:51;10.25;;;4.75;;
74371;SDS011;62885;51.374;6.170;2023-02-08T00:55:16;11.25;;;5.57;;
74371;SDS011;62885;51.374;6.170;2023-02-08T00:57:42;10.35;;;4.60;;
74371;SDS011;62885;51.374;6.170;2023-02-08T01:00:07;10.55;;;4.97;;
74371;SDS011;62885;51.374;6.170;2023-02-08T01:02:33;12.10;;;4.93;;
74371;SDS011;62885;51.374;6.170;2023-02-08T01:04:59;10.45;;;4.82;;
74371;SDS011;62885;51.374;6.170;2023-02-08T01:07:24;11.68;;;5.00;;
74371;SDS011;62885;51.374;6.170;2023-02-08T01:09:50;9.73;;;5.00;;
74371;SDS011;62885;51.374;6.170;2023-02-08T01:12:15;9.73;;;4.70;;
74371;SDS011;62885;51.374;6.170;2023-02-08T01:14:41;12.55;;;5.65;;
74371;SDS011;62885;51.374;6.170;2023-02-08T01:17:06;13.35;;;4.78;;
74371;SDS011;62885;51.374;6.170;2023-02-08T01:19:32;11.90;;;4.55;;
74371;SDS011;62885;51.374;6.170;2023-02-08T01:21:57;11.13;;;4.90;;
74371;SDS011;62885;51.374;6.170;2023-02-08T01:24:23;12.02;;;5.95;;
74371;SDS011;62885;51.374;6.170;2023-02-08T01:26:49;10.27;;;5.15;;
74371;SDS011;62885;51.374;6.170;2023-02-08T01:29:14;9.55;;;5.15;;
74371;SDS011;62885;51.374;6.170;2023-02-08T01:31:40;11.45;;;5.60;;
74371;SDS011;62885;51.374;6.170;2023-02-08T01:34:07;9.55;;;5.43;;
74371;SDS011;62885;51.374;6.170;2023-02-08T01:36:34;9.10;;;4.80;;
74371;SDS011;62885;51.374;6.170;2023-02-08T01:39:00;11.23;;;5.72;;
74371;SDS011;62885;51.374;6.170;2023-02-08T01:41:30;10.80;;;5.35;;
74371;SDS011;62885;51.374;6.170;2023-02-08T01:43:59;13.80;;;5.75;;
74371;SDS011;62885;51.374;6.170;2023-02-08T01:46:24;11.18;;;5.47;;
74371;SDS011;62885;51.374;6.170;2023-02-08T01:48:50;11.57;;;5.13;;
74371;SDS011;62885;51.374;6.170;2023-02-08T01:51:17;13.13;;;5.55;;
74371;SDS011;62885;51.374;6.170;2023-02-08T01:53:46;10.07;;;5.25;;
74371;SDS011;62885;51.374;6.170;2023-02-08T01:56:16;15.07;;;4.65;;
74371;SDS011;62885;51.374;6.170;2023-02-08T01:59:01;10.23;;;5.32;;
74371;SDS011;62885;51.374;6.170;2023-02-08T02:01:30;10.45;;;4.80;;
74371;SDS011;62885;51.374;6.170;2023-02-08T02:03:58;12.77;;;5.07;;
74371;SDS011;62885;51.374;6.170;2023-02-08T02:06:27;9.10;;;4.28;;
74371;SDS011;62885;51.374;6.170;2023-02-08T02:09:13;10.05;;;5.15;;
74371;SDS011;62885;51.374;6.170;2023-02-08T02:11:43;9.68;;;4.43;;
74371;SDS011;62885;51.374;6.170;2023-02-08T02:14:09;11.45;;;4.78;;
74371;SDS011;62885;51.374;6.170;2023-02-08T02:16:35;10.70;;;5.20;;
74371;SDS011;62885;51.374;6.170;2023-02-08T02:19:01;9.02;;;4.25;;
74371;SDS011;62885;51.374;6.170;2023-02-08T02:32:38;11.48;;;4.88;;
74371;SDS011;62885;51.374;6.170;2023-02-08T02:35:07;9.57;;;4.80;;
74371;SDS011;62885;51.374;6.170;2023-02-08T02:46:03;8.57;;;4.63;;
74371;SDS011;62885;51.374;6.170;2023-02-08T02:51:02;10.10;;;4.38;;
74371;SDS011;62885;51.374;6.170;2023-02-08T02:56:13;8.48;;;3.58;;
74371;SDS011;62885;51.374;6.170;2023-02-08T02:58:42;9.55;;;5.00;;
74371;SDS011;62885;51.374;6.170;2023-02-08T03:01:09;10.43;;;4.75;;
74371;SDS011;62885;51.374;6.170;2023-02-08T03:03:34;9.38;;;4.57;;
74371;SDS011;62885;51.374;6.170;2023-02-08T03:06:04;10.60;;;4.80;;
74371;SDS011;62885;51.374;6.170;2023-02-08T03:08:57;8.65;;;3.92;;
74371;SDS011;62885;51.374;6.170;2023-02-08T03:11:37;14.60;;;4.50;;
74371;SDS011;62885;51.374;6.170;2023-02-08T03:19:59;10.60;;;4.78;;
74371;SDS011;62885;51.374;6.170;2023-02-08T03:28:07;8.98;;;4.88;;
74371;SDS011;62885;51.374;6.170;2023-02-08T03:30:45;6.95;;;4.15;;
74371;SDS011;62885;51.374;6.170;2023-02-08T03:33:20;11.20;;;5.10;;
74371;SDS011;62885;51.374;6.170;2023-02-08T03:35:53;9.93;;;4.20;;
74371;SDS011;62885;51.374;6.170;2023-02-08T03:38:30;9.32;;;4.50;;
74371;SDS011;62885;51.374;6.170;2023-02-08T03:41:00;9.45;;;3.90;;
74371;SDS011;62885;51.374;6.170;2023-02-08T03:43:30;13.00;;;5.18;;
74371;SDS011;62885;51.374;6.170;2023-02-08T03:48:39;10.98;;;4.50;;
74371;SDS011;62885;51.374;6.170;2023-02-08T03:51:06;10.38;;;4.35;;
74371;SDS011;62885;51.374;6.170;2023-02-08T03:53:33;10.05;;;4.30;;
74371;SDS011;62885;51.374;6.170;2023-02-08T03:56:06;7.90;;;4.13;;
74371;SDS011;62885;51.374;6.170;2023-02-08T03:58:41;10.20;;;4.55;;
74371;SDS011;62885;51.374;6.170;2023-02-08T04:01:32;9.15;;;4.60;;
74371;SDS011;62885;51.374;6.170;2023-02-08T04:04:00;9.65;;;4.65;;
74371;SDS011;62885;51.374;6.170;2023-02-08T04:06:26;8.80;;;4.63;;
74371;SDS011;62885;51.374;6.170;2023-02-08T04:08:52;12.93;;;4.72;;
74371;SDS011;62885;51.374;6.170;2023-02-08T04:11:17;11.65;;;4.55;;
74371;SDS011;62885;51.374;6.170;2023-02-08T04:13:43;12.88;;;5.30;;
74371;SDS011;62885;51.374;6.170;2023-02-08T04:16:11;7.93;;;4.10;;
74371;SDS011;62885;51.374;6.170;2023-02-08T04:18:37;9.50;;;4.43;;
74371;SDS011;62885;51.374;6.170;2023-02-08T04:21:03;10.27;;;4.60;;
74371;SDS011;62885;51.374;6.170;2023-02-08T04:23:29;9.02;;;4.63;;
74371;SDS011;62885;51.374;6.170;2023-02-08T04:25:54;9.95;;;4.13;;
74371;SDS011;62885;51.374;6.170;2023-02-08T04:28:19;9.65;;;3.92;;
74371;SDS011;62885;51.374;6.170;2023-02-08T04:30:45;8.15;;;3.70;;
74371;SDS011;62885;51.374;6.170;2023-02-08T04:33:10;9.65;;;3.97;;
74371;SDS011;62885;51.374;6.170;2023-02-08T04:35:38;11.85;;;3.80;;
74371;SDS011;62885;51.374;6.170;2023-02-08T04:38:04;10.60;;;4.50;;
74371;SDS011;62885;51.374;6.170;2023-02-08T04:40:29;8.25;;;3.70;;
74371;SDS011;62885;51.374;6.170;2023-02-08T04:42:55;9.82;;;4.07;;
74371;SDS011;62885;51.374;6.170;2023-02-08T04:45:20;10.63;;;4.40;;
74371;SDS011;62885;51.374;6.170;2023-02-08T04:47:46;8.68;;;4.20;;
74371;SDS011;62885;51.374;6.170;2023-02-08T04:50:11;12.13;;;5.28;;
74371;SDS011;62885;51.374;6.170;2023-02-08T04:52:36;9.88;;;3.40;;
74371;SDS011;62885;51.374;6.170;2023-02-08T04:55:02;12.07;;;5.25;;
74371;SDS011;62885;51.374;6.170;2023-02-08T04:57:27;10.15;;;4.75;;
74371;SDS011;62885;51.374;6.170;2023-02-08T04:59:52;8.82;;;4.35;;
74371;SDS011;62885;51.374;6.170;2023-02-08T05:02:18;10.00;;;3.97;;
74371;SDS011;62885;51.374;6.170;2023-02-08T05:04:43;10.82;;;5.00;;
74371;SDS011;62885;51.374;6.170;2023-02-08T05:07:09;10.95;;;4.63;;
74371;SDS011;62885;51.374;6.170;2023-02-08T05:09:34;10.10;;;4.68;;
74371;SDS011;62885;51.374;6.170;2023-02-08T05:11:59;9.30;;;3.70;;
74371;SDS011;62885;51.374;6.170;2023-02-08T05:14:25;11.68;;;5.55;;
74371;SDS011;62885;51.374;6.170;2023-02-08T05:16:50;8.43;;;4.25;;
74371;SDS011;62885;51.374;6.170;2023-02-08T05:19:15;10.63;;;4.03;;
74371;SDS011;62885;51.374;6.170;2023-02-08T05:21:41;8.77;;;3.97;;
74371;SDS011;62885;51.374;6.170;2023-02-08T05:24:06;10.65;;;3.90;;
74371;SDS011;62885;51.374;6.170;2023-02-08T05:26:31;7.75;;;3.72;;
74371;SDS011;62885;51.374;6.170;2023-02-08T05:28:57;7.47;;;3.53;;
74371;SDS011;62885;51.374;6.170;2023-02-08T05:31:23;9.63;;;3.58;;
74371;SDS011;62885;51.374;6.170;2023-02-08T05:33:50;8.85;;;4.10;;
74371;SDS011;62885;51.374;6.170;2023-02-08T05:36:16;6.97;;;3.58;;
74371;SDS011;62885;51.374;6.170;2023-02-08T05:38:42;9.82;;;3.72;;
74371;SDS011;62885;51.374;6.170;2023-02-08T05:41:08;8.98;;;4.05;;
74371;SDS011;62885;51.374;6.170;2023-02-08T05:43:34;10.05;;;5.45;;
74371;SDS011;62885;51.374;6.170;2023-02-08T05:45:59;11.00;;;5.13;;
74371;SDS011;62885;51.374;6.170;2023-02-08T05:48:25;11.52;;;5.28;;
74371;SDS011;62885;51.374;6.170;2023-02-08T05:50:50;11.68;;;4.35;;
74371;SDS011;62885;51.374;6.170;2023-02-08T05:53:15;8.60;;;3.80;;
74371;SDS011;62885;51.374;6.170;2023-02-08T05:55:44;9.63;;;4.13;;
74371;SDS011;62885;51.374;6.170;2023-02-08T05:58:12;6.72;;;3.35;;
74371;SDS011;62885;51.374;6.170;2023-02-08T06:00:38;9.63;;;4.90;;
74371;SDS011;62885;51.374;6.170;2023-02-08T06:03:04;10.52;;;5.13;;
74371;SDS011;62885;51.374;6.170;2023-02-08T06:05:29;8.57;;;3.85;;
74371;SDS011;62885;51.374;6.170;2023-02-08T06:07:55;13.77;;;5.38;;
74371;SDS011;62885;51.374;6.170;2023-02-08T06:10:20;9.43;;;4.28;;
74371;SDS011;62885;51.374;6.170;2023-02-08T06:12:46;10.13;;;3.78;;
74371;SDS011;62885;51.374;6.170;2023-02-08T06:15:13;8.02;;;4.20;;
74371;SDS011;62885;51.374;6.170;2023-02-08T06:17:39;8.60;;;3.97;;
74371;SDS011;62885;51.374;6.170;2023-02-08T06:20:04;8.52;;;4.22;;
74371;SDS011;62885;51.374;6.170;2023-02-08T06:22:30;7.60;;;3.60;;
74371;SDS011;62885;51.374;6.170;2023-02-08T06:24:57;10.23;;;5.70;;
74371;SDS011;62885;51.374;6.170;2023-02-08T06:27:23;13.27;;;4.85;;
74371;SDS011;62885;51.374;6.170;2023-02-08T06:29:48;10.15;;;4.97;;
74371;SDS011;62885;51.374;6.170;2023-02-08T06:32:13;10.18;;;4.40;;
74371;SDS011;62885;51.374;6.170;2023-02-08T06:34:39;11.60;;;4.22;;
74371;SDS011;62885;51.374;6.170;2023-02-08T06:37:04;7.28;;;3.60;;
74371;SDS011;62885;51.374;6.170;2023-02-08T06:39:29;9.85;;;4.22;;
74371;SDS011;62885;51.374;6.170;2023-02-08T06:41:55;12.23;;;4.15;;
74371;SDS011;62885;51.374;6.170;2023-02-08T06:44:21;10.00;;;4.63;;
74371;SDS011;62885;51.374;6.170;2023-02-08T06:46:46;10.02;;;4.35;;
74371;SDS011;62885;51.374;6.170;2023-02-08T06:49:11;11.13;;;4.60;;
74371;SDS011;62885;51.374;6.170;2023-02-08T06:51:37;8.07;;;4.15;;
74371;SDS011;62885;51.374;6.170;2023-02-08T06:54:03;8.20;;;3.95;;
74371;SDS011;62885;51.374;6.170;2023-02-08T06:56:28;10.52;;;4.60;;
74371;SDS011;62885;51.374;6.170;2023-02-08T06:58:55;9.10;;;4.60;;
74371;SDS011;62885;51.374;6.170;2023-02-08T07:01:20;9.23;;;4.65;;
74371;SDS011;62885;51.374;6.170;2023-02-08T07:03:46;8.45;;;4.03;;
74371;SDS011;62885;51.374;6.170;2023-02-08T07:06:12;11.23;;;5.05;;
74371;SDS011;62885;51.374;6.170;2023-02-08T07:08:38;11.60;;;5.03;;
74371;SDS011;62885;51.374;6.170;2023-02-08T07:11:07;11.15;;;5.25;;
74371;SDS011;62885;51.374;6.170;2023-02-08T07:13:34;11.13;;;4.38;;
74371;SDS011;62885;51.374;6.170;2023-02-08T07:16:00;10.32;;;5.20;;
74371;SDS011;62885;51.374;6.170;2023-02-08T07:18:26;9.23;;;3.90;;
74371;SDS011;62885;51.374;6.170;2023-02-08T07:20:52;9.95;;;4.78;;
74371;SDS011;62885;51.374;6.170;2023-02-08T07:23:17;10.93;;;4.85;;
74371;SDS011;62885;51.374;6.170;2023-02-08T07:25:42;9.65;;;4.93;;
74371;SDS011;62885;51.374;6.170;2023-02-08T07:28:08;10.88;;;4.72;;
74371;SDS011;62885;51.374;6.170;2023-02-08T07:30:33;9.98;;;4.03;;
74371;SDS011;62885;51.374;6.170;2023-02-08T07:32:58;9.45;;;4.45;;
74371;SDS011;62885;51.374;6.170;2023-02-08T07:35:24;11.20;;;4.88;;
74371;SDS011;62885;51.374;6.170;2023-02-08T07:37:49;8.75;;;5.40;;
74371;SDS011;62885;51.374;6.170;2023-02-08T07:40:15;7.13;;;3.85;;
74371;SDS011;62885;51.374;6.170;2023-02-08T07:42:40;9.95;;;5.45;;
74371;SDS011;62885;51.374;6.170;2023-02-08T07:45:05;10.57;;;4.35;;
74371;SDS011;62885;51.374;6.170;2023-02-08T07:47:31;10.40;;;4.95;;
74371;SDS011;62885;51.374;6.170;2023-02-08T07:49:56;13.45;;;5.50;;
74371;SDS011;62885;51.374;6.170;2023-02-08T07:52:22;12.13;;;5.25;;
74371;SDS011;62885;51.374;6.170;2023-02-08T07:54:47;16.73;;;7.07;;
74371;SDS011;62885;51.374;6.170;2023-02-08T07:57:12;15.10;;;6.40;;
74371;SDS011;62885;51.374;6.170;2023-02-08T07:59:45;9.52;;;5.13;;
74371;SDS011;62885;51.374;6.170;2023-02-08T08:02:11;9.98;;;4.93;;
74371;SDS011;62885;51.374;6.170;2023-02-08T08:04:39;12.00;;;4.82;;
74371;SDS011;62885;51.374;6.170;2023-02-08T08:07:04;12.68;;;4.60;;
74371;SDS011;62885;51.374;6.170;2023-02-08T08:09:29;15.35;;;4.30;;
74371;SDS011;62885;51.374;6.170;2023-02-08T08:11:55;11.38;;;4.95;;
74371;SDS011;62885;51.374;6.170;2023-02-08T08:14:20;10.90;;;4.63;;
74371;SDS011;62885;51.374;6.170;2023-02-08T08:16:45;9.63;;;4.55;;
74371;SDS011;62885;51.374;6.170;2023-02-08T08:19:11;12.38;;;4.82;;
74371;SDS011;62885;51.374;6.170;2023-02-08T08:21:36;8.45;;;4.15;;
74371;SDS011;62885;51.374;6.170;2023-02-08T08:24:01;13.20;;;4.65;;
74371;SDS011;62885;51.374;6.170;2023-02-08T08:26:27;10.45;;;5.28;;
74371;SDS011;62885;51.374;6.170;2023-02-08T08:28:53;10.93;;;5.28;;
74371;SDS011;62885;51.374;6.170;2023-02-08T08:31:19;10.63;;;5.10;;
74371;SDS011;62885;51.374;6.170;2023-02-08T08:33:45;30.25;;;14.95;;
74371;SDS011;62885;51.374;6.170;2023-02-08T08:36:11;20.60;;;10.52;;
74371;SDS011;62885;51.374;6.170;2023-02-08T08:38:37;12.32;;;6.38;;
74371;SDS011;62885;51.374;6.170;2023-02-08T08:41:13;15.57;;;6.05;;
74371;SDS011;62885;51.374;6.170;2023-02-08T08:43:46;10.75;;;5.05;;
74371;SDS011;62885;51.374;6.170;2023-02-08T08:46:12;9.25;;;5.10;;
74371;SDS011;62885;51.374;6.170;2023-02-08T08:48:39;10.93;;;5.00;;
74371;SDS011;62885;51.374;6.170;2023-02-08T08:51:04;11.80;;;4.55;;
74371;SDS011;62885;51.374;6.170;2023-02-08T08:53:30;11.50;;;4.82;;
74371;SDS011;62885;51.374;6.170;2023-02-08T08:55:55;12.52;;;4.85;;
74371;SDS011;62885;51.374;6.170;2023-02-08T08:58:21;10.15;;;4.45;;
74371;SDS011;62885;51.374;6.170;2023-02-08T09:00:49;12.30;;;5.45;;
74371;SDS011;62885;51.374;6.170;2023-02-08T09:03:15;9.98;;;4.90;;
74371;SDS011;62885;51.374;6.170;2023-02-08T09:05:40;11.55;;;5.03;;
74371;SDS011;62885;51.374;6.170;2023-02-08T09:08:05;9.80;;;4.55;;
74371;SDS011;62885;51.374;6.170;2023-02-08T09:10:31;13.65;;;4.50;;
74371;SDS011;62885;51.374;6.170;2023-02-08T09:12:57;10.18;;;5.05;;
74371;SDS011;62885;51.374;6.170;2023-02-08T09:15:23;8.98;;;4.75;;
74371;SDS011;62885;51.374;6.170;2023-02-08T09:17:48;14.48;;;5.07;;
74371;SDS011;62885;51.374;6.170;2023-02-08T09:20:14;9.18;;;4.68;;
74371;SDS011;62885;51.374;6.170;2023-02-08T09:22:39;10.90;;;4.50;;
74371;SDS011;62885;51.374;6.170;2023-02-08T09:25:05;7.78;;;4.18;;
74371;SDS011;62885;51.374;6.170;2023-02-08T09:27:31;11.23;;;4.78;;
74371;SDS011;62885;51.374;6.170;2023-02-08T09:29:57;10.65;;;4.57;;
74371;SDS011;62885;51.374;6.170;2023-02-08T09:32:22;11.00;;;4.80;;
74371;SDS011;62885;51.374;6.170;2023-02-08T09:34:48;11.38;;;5.53;;
74371;SDS011;62885;51.374;6.170;2023-02-08T09:37:13;18.75;;;6.35;;
74371;SDS011;62885;51.374;6.170;2023-02-08T09:39:41;23.90;;;12.73;;
74371;SDS011;62885;51.374;6.170;2023-02-08T09:45:19;12.27;;;5.18;;
74371;SDS011;62885;51.374;6.170;2023-02-08T09:50:52;11.30;;;4.85;;
74371;SDS011;62885;51.374;6.170;2023-02-08T09:53:31;11.90;;;4.80;;
74371;SDS011;62885;51.374;6.170;2023-02-08T09:56:01;11.45;;;5.28;;
74371;SDS011;62885;51.374;6.170;2023-02-08T10:01:01;9.10;;;4.38;;
74371;SDS011;62885;51.374;6.170;2023-02-08T10:03:41;10.95;;;5.15;;
74371;SDS011;62885;51.374;6.170;2023-02-08T10:06:12;12.48;;;4.75;;
74371;SDS011;62885;51.374;6.170;2023-02-08T10:08:39;12.68;;;5.32;;
74371;SDS011;62885;51.374;6.170;2023-02-08T10:17:00;10.05;;;4.72;;
74371;SDS011;62885;51.374;6.170;2023-02-08T10:19:40;12.63;;;5.07;;
74371;SDS011;62885;51.374;6.170;2023-02-08T10:22:24;7.88;;;3.70;;
74371;SDS011;62885;51.374;6.170;2023-02-08T10:27:42;10.00;;;3.92;;
74371;SDS011;62885;51.374;6.170;2023-02-08T10:30:16;9.68;;;4.85;;
74371;SDS011;62885;51.374;6.170;2023-02-08T10:35:27;12.15;;;4.75;;
74371;SDS011;62885;51.374;6.170;2023-02-08T10:38:01;11.23;;;4.03;;
74371;SDS011;62885;51.374;6.170;2023-02-08T10:40:47;8.57;;;4.10;;
74371;SDS011;62885;51.374;6.170;2023-02-08T10:46:00;12.27;;;4.65;;
74371;SDS011;62885;51.374;6.170;2023-02-08T10:50:59;11.88;;;5.32;;
74371;SDS011;62885;51.374;6.170;2023-02-08T10:53:24;14.05;;;6.38;;
74371;SDS011;62885;51.374;6.170;2023-02-08T10:55:50;8.75;;;4.95;;
74371;SDS011;62885;51.374;6.170;2023-02-08T10:58:17;10.85;;;4.78;;
74371;SDS011;62885;51.374;6.170;2023-02-08T11:00:44;9.35;;;4.22;;
74371;SDS011;62885;51.374;6.170;2023-02-08T11:03:21;9.30;;;4.13;;
74371;SDS011;62885;51.374;6.170;2023-02-08T11:05:47;10.95;;;4.57;;
74371;SDS011;62885;51.374;6.170;2023-02-08T11:08:14;9.43;;;4.78;;
74371;SDS011;62885;51.374;6.170;2023-02-08T11:11:05;9.10;;;3.85;;
74371;SDS011;62885;51.374;6.170;2023-02-08T11:13:37;7.90;;;3.78;;
74371;SDS011;62885;51.374;6.170;2023-02-08T11:16:05;11.30;;;4.80;;
74371;SDS011;62885;51.374;6.170;2023-02-08T11:18:35;9.35;;;3.72;;
74371;SDS011;62885;51.374;6.170;2023-02-08T11:21:04;9.10;;;4.95;;
74371;SDS011;62885;51.374;6.170;2023-02-08T11:23:38;10.95;;;4.55;;
74371;SDS011;62885;51.374;6.170;2023-02-08T11:31:26;6.82;;;3.30;;
74371;SDS011;62885;51.374;6.170;2023-02-08T11:34:02;12.25;;;4.20;;
74371;SDS011;62885;51.374;6.170;2023-02-08T11:36:30;16.08;;;8.50;;
74371;SDS011;62885;51.374;6.170;2023-02-08T11:38:59;10.23;;;4.25;;
74371;SDS011;62885;51.374;6.170;2023-02-08T11:41:27;8.60;;;3.58;;
74371;SDS011;62885;51.374;6.170;2023-02-08T11:44:02;9.30;;;3.58;;
74371;SDS011;62885;51.374;6.170;2023-02-08T11:46:31;8.82;;;3.63;;
74371;SDS011;62885;51.374;6.170;2023-02-08T11:48:59;8.43;;;3.60;;
74371;SDS011;62885;51.374;6.170;2023-02-08T11:51:27;8.80;;;3.58;;
74371;SDS011;62885;51.374;6.170;2023-02-08T11:53:58;7.03;;;3.35;;
74371;SDS011;62885;51.374;6.170;2023-02-08T11:56:29;7.95;;;3.63;;
74371;SDS011;62885;51.374;6.170;2023-02-08T11:58:57;7.40;;;3.10;;
74371;SDS011;62885;51.374;6.170;2023-02-08T12:01:30;7.38;;;3.58;;
74371;SDS011;62885;51.374;6.170;2023-02-08T12:03:58;6.65;;;3.22;;
74371;SDS011;62885;51.374;6.170;2023-02-08T12:12:09;7.07;;;3.53;;
74371;SDS011;62885;51.374;6.170;2023-02-08T12:20:18;8.88;;;3.38;;
74371;SDS011;62885;51.374;6.170;2023-02-08T12:23:00;7.05;;;2.55;;
74371;SDS011;62885;51.374;6.170;2023-02-08T12:28:12;7.55;;;3.03;;
74371;SDS011;62885;51.374;6.170;2023-02-08T12:30:56;5.80;;;2.83;;
74371;SDS011;62885;51.374;6.170;2023-02-08T12:36:34;8.43;;;3.10;;
74371;SDS011;62885;51.374;6.170;2023-02-08T12:45:02;9.95;;;2.20;;
74371;SDS011;62885;51.374;6.170;2023-02-08T12:53:41;4.45;;;1.90;;
74371;SDS011;62885;51.374;6.170;2023-02-08T12:56:15;5.95;;;2.50;;
74371;SDS011;62885;51.374;6.170;2023-02-08T12:58:45;10.15;;;2.30;;
74371;SDS011;62885;51.374;6.170;2023-02-08T13:03:49;5.00;;;2.20;;
74371;SDS011;62885;51.374;6.170;2023-02-08T13:06:22;4.18;;;2.17;;
74371;SDS011;62885;51.374;6.170;2023-02-08T13:11:30;6.07;;;2.22;;
74371;SDS011;62885;51.374;6.170;2023-02-08T13:16:58;6.53;;;1.70;;
74371;SDS011;62885;51.374;6.170;2023-02-08T13:22:23;8.60;;;2.53;;
74371;SDS011;62885;51.374;6.170;2023-02-08T13:24:49;4.38;;;1.70;;
74371;SDS011;62885;51.374;6.170;2023-02-08T13:27:16;3.80;;;1.70;;
74371;SDS011;62885;51.374;6.170;2023-02-08T13:29:46;5.28;;;1.95;;
74371;SDS011;62885;51.374;6.170;2023-02-08T13:32:22;4.78;;;1.92;;
74371;SDS011;62885;51.374;6.170;2023-02-08T13:35:01;6.38;;;2.53;;
74371;SDS011;62885;51.374;6.170;2023-02-08T13:37:30;6.55;;;2.40;;
74371;SDS011;62885;51.374;6.170;2023-02-08T13:40:06;5.35;;;2.15;;
74371;SDS011;62885;51.374;6.170;2023-02-08T13:42:47;6.25;;;2.20;;
74371;SDS011;62885;51.374;6.170;2023-02-08T13:45:27;6.10;;;2.35;;
74371;SDS011;62885;51.374;6.170;2023-02-08T13:47:57;4.40;;;2.10;;
74371;SDS011;62885;51.374;6.170;2023-02-08T13:50:36;6.22;;;1.85;;
74371;SDS011;62885;51.374;6.170;2023-02-08T13:53:05;5.88;;;2.03;;
74371;SDS011;62885;51.374;6.170;2023-02-08T13:57:58;5.35;;;2.25;;
74371;SDS011;62885;51.374;6.170;2023-02-08T14:00:28;7.07;;;2.22;;
74371;SDS011;62885;51.374;6.170;2023-02-08T14:08:03;4.97;;;2.40;;
74371;SDS011;62885;51.374;6.170;2023-02-08T14:10:36;4.60;;;2.03;;
74371;SDS011;62885;51.374;6.170;2023-02-08T14:13:14;4.78;;;2.22;;
74371;SDS011;62885;51.374;6.170;2023-02-08T14:15:47;7.53;;;2.63;;
74371;SDS011;62885;51.374;6.170;2023-02-08T14:18:51;6.47;;;2.33;;
74371;SDS011;62885;51.374;6.170;2023-02-08T14:21:25;5.28;;;1.95;;
74371;SDS011;62885;51.374;6.170;2023-02-08T14:24:16;7.40;;;2.33;;
74371;SDS011;62885;51.374;6.170;2023-02-08T14:26:46;7.75;;;2.92;;
74371;SDS011;62885;51.374;6.170;2023-02-08T14:29:30;6.07;;;2.40;;
74371;SDS011;62885;51.374;6.170;2023-02-08T14:31:59;5.95;;;2.28;;
74371;SDS011;62885;51.374;6.170;2023-02-08T14:34:29;8.52;;;2.30;;
74371;SDS011;62885;51.374;6.170;2023-02-08T14:37:40;5.20;;;2.17;;
74371;SDS011;62885;51.374;6.170;2023-02-08T14:40:22;7.18;;;2.60;;
74371;SDS011;62885;51.374;6.170;2023-02-08T14:45:49;6.45;;;2.35;;
74371;SDS011;62885;51.374;6.170;2023-02-08T14:48:23;6.38;;;2.15;;
74371;SDS011;62885;51.374;6.170;2023-02-08T14:56:00;5.97;;;2.53;;
74371;SDS011;62885;51.374;6.170;2023-02-08T14:58:32;5.25;;;1.98;;
74371;SDS011;62885;51.374;6.170;2023-02-08T15:01:02;5.70;;;2.33;;
74371;SDS011;62885;51.374;6.170;2023-02-08T15:03:32;6.22;;;2.65;;
74371;SDS011;62885;51.374;6.170;2023-02-08T15:08:39;6.50;;;2.30;;
74371;SDS011;62885;51.374;6.170;2023-02-08T15:11:04;5.57;;;2.00;;
74371;SDS011;62885;51.374;6.170;2023-02-08T15:13:30;4.32;;;2.17;;
74371;SDS011;62885;51.374;6.170;2023-02-08T15:15:56;4.75;;;1.83;;
74371;SDS011;62885;51.374;6.170;2023-02-08T15:18:23;8.15;;;2.35;;
74371;SDS011;62885;51.374;6.170;2023-02-08T15:21:02;4.75;;;2.05;;
74371;SDS011;62885;51.374;6.170;2023-02-08T15:23:30;4.97;;;2.03;;
74371;SDS011;62885;51.374;6.170;2023-02-08T15:26:16;6.38;;;1.77;;
74371;SDS011;62885;51.374;6.170;2023-02-08T15:28:45;5.30;;;2.30;;
74371;SDS011;62885;51.374;6.170;2023-02-08T15:31:14;4.18;;;1.75;;
74371;SDS011;62885;51.374;6.170;2023-02-08T15:33:57;4.63;;;1.92;;
74371;SDS011;62885;51.374;6.170;2023-02-08T15:36:28;5.65;;;2.45;;
74371;SDS011;62885;51.374;6.170;2023-02-08T15:41:24;5.07;;;1.90;;
74371;SDS011;62885;51.374;6.170;2023-02-08T15:43:49;7.43;;;2.33;;
74371;SDS011;62885;51.374;6.170;2023-02-08T15:46:16;3.80;;;1.73;;
74371;SDS011;62885;51.374;6.170;2023-02-08T15:48:44;5.15;;;2.28;;
74371;SDS011;62885;51.374;6.170;2023-02-08T15:51:11;5.07;;;2.13;;
74371;SDS011;62885;51.374;6.170;2023-02-08T15:53:40;5.72;;;2.03;;
74371;SDS011;62885;51.374;6.170;2023-02-08T15:56:09;5.55;;;2.22;;
74371;SDS011;62885;51.374;6.170;2023-02-08T15:58:44;5.35;;;2.30;;
74371;SDS011;62885;51.374;6.170;2023-02-08T16:01:18;7.63;;;2.63;;
74371;SDS011;62885;51.374;6.170;2023-02-08T16:03:45;5.88;;;2.22;;
74371;SDS011;62885;51.374;6.170;2023-02-08T16:06:14;5.32;;;1.70;;
74371;SDS011;62885;51.374;6.170;2023-02-08T16:08:47;5.50;;;1.75;;
74371;SDS011;62885;51.374;6.170;2023-02-08T16:11:20;5.85;;;2.03;;
74371;SDS011;62885;51.374;6.170;2023-02-08T16:13:48;3.33;;;1.45;;
74371;SDS011;62885;51.374;6.170;2023-02-08T16:18:57;8.50;;;2.55;;
74371;SDS011;62885;51.374;6.170;2023-02-08T16:26:41;5.95;;;1.83;;
74371;SDS011;62885;51.374;6.170;2023-02-08T16:31:54;5.30;;;2.28;;
74371;SDS011;62885;51.374;6.170;2023-02-08T16:34:43;6.25;;;2.28;;
74371;SDS011;62885;51.374;6.170;2023-02-08T16:37:25;5.65;;;2.25;;
74371;SDS011;62885;51.374;6.170;2023-02-08T16:42:30;8.13;;;3.05;;
74371;SDS011;62885;51.374;6.170;2023-02-08T16:47:42;8.65;;;3.22;;
74371;SDS011;62885;51.374;6.170;2023-02-08T16:50:16;6.45;;;2.42;;
74371;SDS011;62885;51.374;6.170;2023-02-08T16:52:47;7.13;;;2.72;;
74371;SDS011;62885;51.374;6.170;2023-02-08T16:55:21;10.32;;;4.25;;
74371;SDS011;62885;51.374;6.170;2023-02-08T16:57:52;18.52;;;8.07;;
74371;SDS011;62885;51.374;6.170;2023-02-08T17:00:30;7.65;;;3.33;;
74371;SDS011;62885;51.374;6.170;2023-02-08T17:02:57;7.88;;;2.75;;
74371;SDS011;62885;51.374;6.170;2023-02-08T17:05:24;6.80;;;2.50;;
74371;SDS011;62885;51.374;6.170;2023-02-08T17:07:52;8.73;;;3.00;;
74371;SDS011;62885;51.374;6.170;2023-02-08T17:10:28;11.23;;;2.90;;
74371;SDS011;62885;51.374;6.170;2023-02-08T17:12:55;6.20;;;2.10;;
74371;SDS011;62885;51.374;6.170;2023-02-08T17:15:21;7.57;;;2.38;;
74371;SDS011;62885;51.374;6.170;2023-02-08T17:17:48;5.85;;;2.70;;